Time;durP1;ratioP1;P1;durP2;ratioP2;P2;SDS_P1;SDS_P2;PMS_P1;PMS_P2;Temp;Humidity;BMP_temperature;BMP_pressure;BME280_temperature;BME280_humidity;BME280_pressure;Samples;Min_cycle;Max_cycle;Signal;HPM_P1;HPM_P2
2023/10/04 00:00:14;;;;;;;12.20;3.10;;;;;;;;;;4924615;28;20055;-73
2023/10/04 00:02:40;;;;;;;12.48;3.08;;;;;;;;;;4924721;29;20062;-74
2023/10/04 00:05:06;;;;;;;15.85;3.10;;;;;;;;;;4945742;28;20036;-73
2023/10/04 00:07:32;;;;;;;15.57;3.55;;;;;;;;;;4924269;29;20154;-74
2023/10/04 00:10:04;;;;;;;9.98;3.00;;;;;;;;;;4939087;28;20564;-74
2023/10/04 00:12:33;;;;;;;11.40;3.30;;;;;;;;;;4949162;28;20063;-73
2023/10/04 00:14:59;;;;;;;11.95;2.95;;;;;;;;;;4941534;28;20051;-74
2023/10/04 00:17:25;;;;;;;16.42;3.58;;;;;;;;;;4937967;29;20039;-73
2023/10/04 00:19:52;;;;;;;14.35;3.17;;;;;;;;;;4917151;29;20055;-73
2023/10/04 00:22:23;;;;;;;13.48;3.35;;;;;;;;;;4924812;29;20059;-73
2023/10/04 00:24:52;;;;;;;13.65;3.00;;;;;;;;;;4917757;29;20060;-74
2023/10/04 00:27:19;;;;;;;13.95;3.20;;;;;;;;;;4945488;28;20047;-73
2023/10/04 00:29:45;;;;;;;19.98;3.40;;;;;;;;;;4930610;28;20082;-74
2023/10/04 00:32:13;;;;;;;12.05;3.03;;;;;;;;;;4924816;29;20048;-74
2023/10/04 00:34:40;;;;;;;15.43;3.22;;;;;;;;;;4945874;28;20437;-74
2023/10/04 00:37:07;;;;;;;14.10;3.20;;;;;;;;;;4941649;29;20048;-74
2023/10/04 00:39:34;;;;;;;14.18;3.75;;;;;;;;;;4921625;29;20044;-73
2023/10/04 00:42:00;;;;;;;20.25;3.38;;;;;;;;;;4929323;29;20047;-74
2023/10/04 00:44:26;;;;;;;14.73;3.20;;;;;;;;;;4923078;29;20501;-73
2023/10/04 00:46:53;;;;;;;17.63;3.10;;;;;;;;;;4935064;29;20051;-74
2023/10/04 00:49:19;;;;;;;13.52;3.05;;;;;;;;;;4933884;29;20043;-74
2023/10/04 00:51:46;;;;;;;16.15;3.20;;;;;;;;;;4939769;29;20048;-74
2023/10/04 00:54:12;;;;;;;15.52;3.95;;;;;;;;;;4921900;29;20056;-74
2023/10/04 00:56:38;;;;;;;15.57;3.30;;;;;;;;;;4935037;28;20047;-74
2023/10/04 00:59:05;;;;;;;15.57;3.25;;;;;;;;;;4924812;29;20131;-74
2023/10/04 01:01:34;;;;;;;19.02;3.75;;;;;;;;;;4949334;29;20051;-75
2023/10/04 01:04:00;;;;;;;13.80;2.90;;;;;;;;;;4930062;29;20098;-74
2023/10/04 01:06:26;;;;;;;16.05;3.55;;;;;;;;;;4950995;28;20054;-73
2023/10/04 01:08:53;;;;;;;12.88;2.78;;;;;;;;;;4939363;28;20096;-73
2023/10/04 01:11:22;;;;;;;12.48;3.17;;;;;;;;;;4943408;28;20097;-73
2023/10/04 01:13:48;;;;;;;15.43;3.05;;;;;;;;;;4941056;29;20043;-73
2023/10/04 01:16:15;;;;;;;13.43;3.50;;;;;;;;;;4940469;28;20500;-73
2023/10/04 01:18:44;;;;;;;13.13;3.28;;;;;;;;;;4940446;29;20503;-73
2023/10/04 01:21:10;;;;;;;14.57;2.80;;;;;;;;;;4929227;28;20086;-73
2023/10/04 01:23:39;;;;;;;14.52;3.50;;;;;;;;;;4932127;28;20087;-73
2023/10/04 01:26:05;;;;;;;14.45;3.63;;;;;;;;;;4916411;29;20070;-74
2023/10/04 01:28:31;;;;;;;16.48;3.58;;;;;;;;;;4931169;29;20054;-73
2023/10/04 01:31:00;;;;;;;15.15;3.10;;;;;;;;;;4930156;28;20047;-73
2023/10/04 01:33:28;;;;;;;17.00;3.25;;;;;;;;;;4913520;29;20039;-73
2023/10/04 01:35:55;;;;;;;16.00;3.25;;;;;;;;;;4922613;28;20101;-73
2023/10/04 01:38:25;;;;;;;13.68;3.72;;;;;;;;;;4929934;29;20392;-73
2023/10/04 01:40:52;;;;;;;14.40;3.17;;;;;;;;;;4926472;28;20059;-73
2023/10/04 01:43:19;;;;;;;12.38;3.20;;;;;;;;;;4920799;29;20035;-73
2023/10/04 01:45:50;;;;;;;14.63;3.55;;;;;;;;;;4921151;28;20074;-73
2023/10/04 01:48:17;;;;;;;16.20;3.53;;;;;;;;;;4945602;29;20457;-73
2023/10/04 01:50:44;;;;;;;12.75;2.90;;;;;;;;;;4938524;28;20047;-73
2023/10/04 01:53:10;;;;;;;15.63;3.42;;;;;;;;;;4926345;29;20066;-72
2023/10/04 01:55:37;;;;;;;14.88;3.42;;;;;;;;;;4940160;28;20117;-73
2023/10/04 01:58:04;;;;;;;15.18;2.97;;;;;;;;;;4926123;29;20051;-73
2023/10/04 02:00:30;;;;;;;18.20;3.35;;;;;;;;;;4939645;29;20031;-73
2023/10/04 02:02:56;;;;;;;14.40;3.33;;;;;;;;;;4939761;29;20071;-73
2023/10/04 02:05:28;;;;;;;15.38;3.25;;;;;;;;;;4947524;28;20035;-73
2023/10/04 02:07:56;;;;;;;18.77;3.83;;;;;;;;;;4932205;29;20054;-73
2023/10/04 02:10:23;;;;;;;16.20;3.00;;;;;;;;;;4938079;28;20076;-73
2023/10/04 02:12:50;;;;;;;11.68;3.20;;;;;;;;;;4933322;29;20134;-73
2023/10/04 02:15:17;;;;;;;17.27;3.67;;;;;;;;;;4927150;29;20040;-73
2023/10/04 02:17:47;;;;;;;12.70;2.90;;;;;;;;;;4949171;29;20047;-74
2023/10/04 02:20:21;;;;;;;15.80;3.17;;;;;;;;;;4930976;29;20039;-73
2023/10/04 02:22:47;;;;;;;12.48;3.35;;;;;;;;;;4943478;28;20099;-73
2023/10/04 02:25:14;;;;;;;12.38;3.10;;;;;;;;;;4952913;28;20407;-73
2023/10/04 02:27:42;;;;;;;15.38;3.63;;;;;;;;;;4947854;28;20166;-73
2023/10/04 02:30:30;;;;;;;14.40;3.17;;;;;;;;;;4947234;28;20031;-74
2023/10/04 02:32:57;;;;;;;12.35;3.17;;;;;;;;;;4928411;28;20362;-73
2023/10/04 02:37:59;;;;;;;12.25;3.03;;;;;;;;;;4924993;29;20063;-73
2023/10/04 02:40:27;;;;;;;10.95;2.97;;;;;;;;;;4950721;28;20042;-73
2023/10/04 02:42:58;;;;;;;16.70;3.90;;;;;;;;;;4952531;28;20066;-73
2023/10/04 02:45:26;;;;;;;16.52;3.42;;;;;;;;;;4953146;28;20054;-73
2023/10/04 02:47:53;;;;;;;14.27;3.40;;;;;;;;;;4940313;28;20050;-73
2023/10/04 02:50:25;;;;;;;12.98;3.80;;;;;;;;;;4955855;28;20487;-72
2023/10/04 02:52:52;;;;;;;13.30;3.38;;;;;;;;;;4929138;29;20052;-73
2023/10/04 02:55:18;;;;;;;11.95;2.85;;;;;;;;;;4953701;28;20039;-73
2023/10/04 02:57:45;;;;;;;17.17;3.65;;;;;;;;;;4928781;29;20043;-73
2023/10/04 03:00:16;;;;;;;12.88;3.25;;;;;;;;;;4920166;28;20059;-72
2023/10/04 03:02:49;;;;;;;15.27;3.33;;;;;;;;;;4933446;29;20043;-73
2023/10/04 03:05:18;;;;;;;15.70;3.28;;;;;;;;;;4939153;28;20070;-73
2023/10/04 03:07:45;;;;;;;13.07;3.30;;;;;;;;;;4950683;28;20044;-73
2023/10/04 03:10:12;;;;;;;14.32;3.30;;;;;;;;;;4951039;28;20078;-73
2023/10/04 03:12:41;;;;;;;13.52;3.47;;;;;;;;;;4950150;29;20070;-73
2023/10/04 03:15:07;;;;;;;12.77;3.10;;;;;;;;;;4928129;29;20319;-73
2023/10/04 03:17:33;;;;;;;12.25;3.15;;;;;;;;;;4941916;28;20055;-73
2023/10/04 03:20:00;;;;;;;11.88;3.17;;;;;;;;;;4922928;29;20059;-73
2023/10/04 03:22:28;;;;;;;14.25;3.50;;;;;;;;;;4936043;28;20047;-73
2023/10/04 03:24:55;;;;;;;15.93;3.97;;;;;;;;;;4918185;29;20395;-73
2023/10/04 03:27:24;;;;;;;14.63;3.20;;;;;;;;;;4941525;28;20480;-73
2023/10/04 03:29:51;;;;;;;17.65;3.55;;;;;;;;;;4914106;29;20051;-73
2023/10/04 03:32:18;;;;;;;13.50;3.30;;;;;;;;;;4920187;29;20070;-73
2023/10/04 03:34:44;;;;;;;13.10;3.28;;;;;;;;;;4938732;29;20475;-73
2023/10/04 03:37:14;;;;;;;15.05;3.33;;;;;;;;;;4930072;29;20164;-73
2023/10/04 03:39:40;;;;;;;16.60;3.25;;;;;;;;;;4945627;28;20094;-73
2023/10/04 03:42:06;;;;;;;13.70;3.33;;;;;;;;;;4930996;28;20401;-73
2023/10/04 03:44:35;;;;;;;14.98;3.40;;;;;;;;;;4945532;28;20122;-73
2023/10/04 03:47:01;;;;;;;16.17;3.90;;;;;;;;;;4934014;29;20060;-73
2023/10/04 03:49:27;;;;;;;10.27;3.10;;;;;;;;;;4935625;29;20526;-72
2023/10/04 03:51:53;;;;;;;14.82;3.40;;;;;;;;;;4939379;28;20054;-73
2023/10/04 03:54:20;;;;;;;12.73;3.35;;;;;;;;;;4940910;29;20540;-73
2023/10/04 03:56:46;;;;;;;12.35;3.15;;;;;;;;;;4918639;28;20493;-73
2023/10/04 03:59:12;;;;;;;15.98;3.45;;;;;;;;;;4921745;29;20051;-73
2023/10/04 04:01:38;;;;;;;12.00;3.22;;;;;;;;;;4925947;28;20043;-73
2023/10/04 04:04:06;;;;;;;13.80;3.35;;;;;;;;;;4918354;29;20078;-73
2023/10/04 04:06:32;;;;;;;14.38;3.17;;;;;;;;;;4951778;28;20055;-73
2023/10/04 04:09:03;;;;;;;14.55;3.40;;;;;;;;;;4950089;28;20189;-73
2023/10/04 04:11:29;;;;;;;10.35;2.97;;;;;;;;;;4927927;28;20070;-73
2023/10/04 04:13:57;;;;;;;14.20;3.55;;;;;;;;;;4942281;29;20051;-73
2023/10/04 04:16:23;;;;;;;14.13;3.30;;;;;;;;;;4918601;28;20052;-73
2023/10/04 04:18:54;;;;;;;16.25;3.38;;;;;;;;;;4924498;28;20097;-73
2023/10/04 04:21:20;;;;;;;16.17;3.47;;;;;;;;;;4921040;29;20496;-73
2023/10/04 04:23:46;;;;;;;15.50;3.72;;;;;;;;;;4930508;29;20055;-73
2023/10/04 04:26:13;;;;;;;14.80;3.38;;;;;;;;;;4931905;28;20036;-73
2023/10/04 04:28:40;;;;;;;14.95;3.45;;;;;;;;;;4922388;29;20189;-73
2023/10/04 04:31:14;;;;;;;15.02;3.70;;;;;;;;;;4938556;28;20548;-73
2023/10/04 04:33:44;;;;;;;12.15;3.38;;;;;;;;;;4932561;28;20101;-73
2023/10/04 04:36:17;;;;;;;15.23;3.55;;;;;;;;;;4936886;28;20032;-73
2023/10/04 04:38:47;;;;;;;15.48;3.72;;;;;;;;;;4941616;28;20058;-73
2023/10/04 04:41:14;;;;;;;12.30;3.42;;;;;;;;;;4923996;29;20039;-73
2023/10/04 04:43:40;;;;;;;15.73;3.40;;;;;;;;;;4925684;28;20109;-73
2023/10/04 04:46:13;;;;;;;17.30;3.42;;;;;;;;;;4933200;28;20044;-73
2023/10/04 04:48:39;;;;;;;17.55;3.83;;;;;;;;;;4919170;29;20081;-73
2023/10/04 04:51:12;;;;;;;13.05;3.30;;;;;;;;;;4937880;28;20405;-73
2023/10/04 04:53:47;;;;;;;14.73;3.53;;;;;;;;;;4929971;29;20138;-73
2023/10/04 04:56:14;;;;;;;14.23;3.70;;;;;;;;;;4925304;29;20054;-73
2023/10/04 04:58:48;;;;;;;14.32;3.53;;;;;;;;;;4914727;28;20110;-73
2023/10/04 05:01:14;;;;;;;14.15;3.60;;;;;;;;;;4937993;29;20079;-73
2023/10/04 05:03:50;;;;;;;12.57;3.70;;;;;;;;;;4943604;28;20099;-73
2023/10/04 05:06:22;;;;;;;15.02;3.70;;;;;;;;;;4936288;28;20055;-73
2023/10/04 05:08:51;;;;;;;13.48;3.50;;;;;;;;;;4943500;28;20123;-73
2023/10/04 05:11:17;;;;;;;12.45;3.42;;;;;;;;;;4932165;28;20501;-73
2023/10/04 05:13:44;;;;;;;15.65;3.90;;;;;;;;;;4936744;28;20101;-73
2023/10/04 05:16:10;;;;;;;10.65;3.53;;;;;;;;;;4939542;28;20069;-74
2023/10/04 05:18:37;;;;;;;13.82;3.60;;;;;;;;;;4938900;28;20102;-74
2023/10/04 05:21:06;;;;;;;11.23;3.40;;;;;;;;;;4928197;28;20051;-73
2023/10/04 05:23:32;;;;;;;13.75;3.58;;;;;;;;;;4921145;29;20122;-74
2023/10/04 05:25:59;;;;;;;14.80;3.58;;;;;;;;;;4932286;28;20047;-83
2023/10/04 05:28:27;;;;;;;13.27;3.30;;;;;;;;;;4943435;28;20456;-76
2023/10/04 05:30:57;;;;;;;12.00;3.47;;;;;;;;;;4922302;29;20035;-73
2023/10/04 05:33:23;;;;;;;16.08;3.47;;;;;;;;;;4932692;28;20043;-73
2023/10/04 05:35:55;;;;;;;15.38;3.40;;;;;;;;;;4911077;29;20114;-74
2023/10/04 05:38:22;;;;;;;10.63;3.22;;;;;;;;;;4915112;29;20130;-73
2023/10/04 05:40:49;;;;;;;13.38;3.78;;;;;;;;;;4914713;28;20435;-73
2023/10/04 05:43:16;;;;;;;14.57;4.25;;;;;;;;;;4929623;28;20043;-73
2023/10/04 05:45:43;;;;;;;15.32;3.58;;;;;;;;;;4916822;29;20055;-74
2023/10/04 05:48:14;;;;;;;13.48;3.75;;;;;;;;;;4930388;28;20048;-73
2023/10/04 05:50:40;;;;;;;13.50;3.65;;;;;;;;;;4913528;28;20092;-73
2023/10/04 05:53:06;;;;;;;15.73;4.05;;;;;;;;;;4920212;29;20069;-73
2023/10/04 05:55:34;;;;;;;17.52;3.60;;;;;;;;;;4916271;29;20050;-73
2023/10/04 05:58:00;;;;;;;13.70;3.67;;;;;;;;;;4930694;28;20040;-73
2023/10/04 06:02:53;;;;;;;11.45;3.35;;;;;;;;;;4938636;28;20063;-73
2023/10/04 06:05:23;;;;;;;12.63;3.95;;;;;;;;;;4918596;29;20103;-73
2023/10/04 06:07:54;;;;;;;14.32;4.15;;;;;;;;;;4939493;28;20052;-73
2023/10/04 06:10:20;;;;;;;12.55;3.50;;;;;;;;;;4930472;29;20090;-74
2023/10/04 06:12:46;;;;;;;14.50;3.85;;;;;;;;;;4937886;29;20060;-74
2023/10/04 06:15:15;;;;;;;15.38;3.47;;;;;;;;;;4913997;29;20042;-74
2023/10/04 06:17:43;;;;;;;11.48;4.22;;;;;;;;;;4930518;28;20074;-74
2023/10/04 06:20:25;;;;;;;12.90;3.80;;;;;;;;;;4933206;28;20051;-73
2023/10/04 06:23:01;;;;;;;15.18;4.53;;;;;;;;;;4935764;28;20053;-74
2023/10/04 06:25:29;;;;;;;16.27;4.05;;;;;;;;;;4940291;28;20052;-74
2023/10/04 06:27:56;;;;;;;15.20;4.35;;;;;;;;;;4930540;28;20059;-74
2023/10/04 06:30:27;;;;;;;10.48;3.83;;;;;;;;;;4914404;29;20083;-74
2023/10/04 06:33:04;;;;;;;13.70;4.30;;;;;;;;;;4930526;29;20051;-75
2023/10/04 06:35:30;;;;;;;12.95;3.80;;;;;;;;;;4915532;28;20142;-74
2023/10/04 06:37:57;;;;;;;12.93;4.18;;;;;;;;;;4934441;28;20060;-74
2023/10/04 06:40:24;;;;;;;14.00;4.88;;;;;;;;;;4942315;28;20039;-74
2023/10/04 06:42:51;;;;;;;12.48;4.00;;;;;;;;;;4948235;29;20044;-73
2023/10/04 06:45:17;;;;;;;18.23;4.70;;;;;;;;;;4935884;28;20039;-74
2023/10/04 06:47:44;;;;;;;12.80;4.63;;;;;;;;;;4940894;28;20043;-73
2023/10/04 06:50:13;;;;;;;17.85;4.00;;;;;;;;;;4923052;29;20126;-74
2023/10/04 06:52:41;;;;;;;13.60;4.38;;;;;;;;;;4935473;28;20532;-75
2023/10/04 06:55:12;;;;;;;16.02;4.32;;;;;;;;;;4951841;28;20560;-74
2023/10/04 06:57:41;;;;;;;11.93;3.75;;;;;;;;;;4929867;29;20385;-74
2023/10/04 07:00:14;;;;;;;11.98;4.60;;;;;;;;;;4915743;28;20505;-74
2023/10/04 07:02:43;;;;;;;16.02;4.72;;;;;;;;;;4934513;28;20135;-75
2023/10/04 07:05:09;;;;;;;15.95;4.70;;;;;;;;;;4932749;28;20488;-74
2023/10/04 07:07:36;;;;;;;14.10;4.15;;;;;;;;;;4934646;28;20102;-74
2023/10/04 07:10:03;;;;;;;14.50;4.03;;;;;;;;;;4932414;29;20519;-75
2023/10/04 07:12:31;;;;;;;16.63;4.28;;;;;;;;;;4950537;28;20170;-74
2023/10/04 07:14:58;;;;;;;19.23;4.75;;;;;;;;;;4918080;29;20126;-76
2023/10/04 07:17:24;;;;;;;12.90;4.28;;;;;;;;;;4932962;29;20070;-76
2023/10/04 07:19:50;;;;;;;17.45;4.65;;;;;;;;;;4946070;28;20055;-75
2023/10/04 07:22:21;;;;;;;16.02;4.50;;;;;;;;;;4949211;29;20122;-74
2023/10/04 07:24:47;;;;;;;16.92;4.38;;;;;;;;;;4947705;28;20066;-76
2023/10/04 07:27:13;;;;;;;13.90;4.05;;;;;;;;;;4950340;28;20130;-76
2023/10/04 07:29:39;;;;;;;15.73;4.85;;;;;;;;;;4946568;28;20496;-76
2023/10/04 07:32:05;;;;;;;14.55;4.32;;;;;;;;;;4927726;29;20062;-76
2023/10/04 07:34:33;;;;;;;13.65;4.30;;;;;;;;;;4931322;28;20441;-75
2023/10/04 07:36:59;;;;;;;16.58;4.47;;;;;;;;;;4913952;29;20501;-75
2023/10/04 07:39:25;;;;;;;18.85;4.57;;;;;;;;;;4917006;28;20077;-73
2023/10/04 07:41:51;;;;;;;13.00;4.28;;;;;;;;;;4916910;29;20067;-77
2023/10/04 07:44:17;;;;;;;16.95;4.43;;;;;;;;;;4946266;28;20086;-77
2023/10/04 07:46:43;;;;;;;16.48;4.78;;;;;;;;;;4940366;28;20048;-76
2023/10/04 07:49:10;;;;;;;14.75;4.70;;;;;;;;;;4916031;29;20043;-75
2023/10/04 07:51:36;;;;;;;14.25;4.20;;;;;;;;;;4934512;29;20051;-74
2023/10/04 07:54:03;;;;;;;13.52;4.78;;;;;;;;;;4930638;29;20044;-74
2023/10/04 07:56:30;;;;;;;16.75;4.90;;;;;;;;;;4911537;29;20047;-74
2023/10/04 07:58:57;;;;;;;12.02;3.70;;;;;;;;;;4946003;28;20087;-75
2023/10/04 08:01:23;;;;;;;12.60;4.20;;;;;;;;;;4944376;28;20059;-74
2023/10/04 08:03:49;;;;;;;14.25;4.35;;;;;;;;;;4933895;28;20433;-75
2023/10/04 08:06:15;;;;;;;13.73;4.15;;;;;;;;;;4932602;29;20457;-75
2023/10/04 08:08:41;;;;;;;14.25;4.38;;;;;;;;;;4926502;29;20463;-75
2023/10/04 08:11:11;;;;;;;15.98;4.57;;;;;;;;;;4921138;29;20457;-75
2023/10/04 08:13:40;;;;;;;15.93;4.65;;;;;;;;;;4933520;28;20083;-75
2023/10/04 08:16:06;;;;;;;14.23;4.15;;;;;;;;;;4933681;29;20061;-75
2023/10/04 08:18:33;;;;;;;11.82;4.10;;;;;;;;;;4952523;29;20055;-75
2023/10/04 08:21:08;;;;;;;14.00;4.78;;;;;;;;;;4941395;28;20500;-75
2023/10/04 08:23:34;;;;;;;13.73;4.10;;;;;;;;;;4923632;29;20056;-76
2023/10/04 08:26:00;;;;;;;12.75;4.63;;;;;;;;;;4927273;29;20083;-75
2023/10/04 08:28:27;;;;;;;14.55;4.78;;;;;;;;;;4915880;29;20055;-75
2023/10/04 08:30:53;;;;;;;12.60;4.78;;;;;;;;;;4949241;28;20519;-75
2023/10/04 08:33:19;;;;;;;12.88;4.43;;;;;;;;;;4934716;28;20173;-75
2023/10/04 08:35:46;;;;;;;15.80;5.00;;;;;;;;;;4921119;29;20054;-75
2023/10/04 08:38:13;;;;;;;12.13;4.68;;;;;;;;;;4915670;29;20484;-75
2023/10/04 08:40:39;;;;;;;12.25;4.38;;;;;;;;;;4931614;28;20381;-75
2023/10/04 08:43:07;;;;;;;11.82;4.70;;;;;;;;;;4923017;29;20043;-76
2023/10/04 08:45:36;;;;;;;14.30;4.75;;;;;;;;;;4931638;28;20400;-76
2023/10/04 08:48:06;;;;;;;11.48;4.57;;;;;;;;;;4933177;28;20552;-75
2023/10/04 08:50:39;;;;;;;10.60;4.30;;;;;;;;;;4935491;28;20090;-75
2023/10/04 08:53:14;;;;;;;12.23;4.05;;;;;;;;;;4928527;29;20126;-75
2023/10/04 08:55:41;;;;;;;8.90;3.78;;;;;;;;;;4921934;29;20138;-75
2023/10/04 08:58:08;;;;;;;11.15;4.25;;;;;;;;;;4923711;29;20102;-75
2023/10/04 09:00:35;;;;;;;11.38;3.85;;;;;;;;;;4937147;28;20047;-75
2023/10/04 09:03:05;;;;;;;12.57;4.25;;;;;;;;;;4925334;29;20044;-76
2023/10/04 09:05:34;;;;;;;12.65;4.03;;;;;;;;;;4938172;29;20570;-76
2023/10/04 09:08:04;;;;;;;11.02;4.28;;;;;;;;;;4925806;29;20047;-75
2023/10/04 09:10:33;;;;;;;10.75;4.28;;;;;;;;;;4938602;28;20519;-76
2023/10/04 09:13:03;;;;;;;11.07;4.25;;;;;;;;;;4905724;29;20066;-76
2023/10/04 09:15:30;;;;;;;10.40;4.15;;;;;;;;;;4935384;28;20052;-76
2023/10/04 09:17:57;;;;;;;10.80;4.40;;;;;;;;;;4915320;29;20040;-76
2023/10/04 09:20:32;;;;;;;11.18;4.05;;;;;;;;;;4914990;29;20404;-76
2023/10/04 09:23:01;;;;;;;9.05;3.83;;;;;;;;;;4928604;29;20039;-76
2023/10/04 09:25:35;;;;;;;14.13;4.40;;;;;;;;;;4948439;28;20382;-77
2023/10/04 09:28:01;;;;;;;9.18;4.03;;;;;;;;;;4929361;29;20145;-76
2023/10/04 09:30:28;;;;;;;11.55;4.50;;;;;;;;;;4919779;29;20051;-76
2023/10/04 09:32:55;;;;;;;11.00;4.22;;;;;;;;;;4918519;29;20051;-75
2023/10/04 09:35:21;;;;;;;10.15;4.00;;;;;;;;;;4919851;29;20058;-75
2023/10/04 09:37:51;;;;;;;15.20;5.03;;;;;;;;;;4917325;29;20400;-76
2023/10/04 09:40:23;;;;;;;12.18;4.25;;;;;;;;;;4944998;29;20125;-76
2023/10/04 09:42:53;;;;;;;11.68;3.83;;;;;;;;;;4933219;29;20644;-76
2023/10/04 09:45:20;;;;;;;11.85;4.75;;;;;;;;;;4920770;29;20098;-76
2023/10/04 09:47:46;;;;;;;13.60;4.30;;;;;;;;;;4917940;29;20056;-76
2023/10/04 09:50:26;;;;;;;8.57;3.83;;;;;;;;;;4937949;29;20055;-76
2023/10/04 09:52:53;;;;;;;12.80;4.20;;;;;;;;;;4936391;28;20131;-76
2023/10/04 09:55:22;;;;;;;13.23;4.40;;;;;;;;;;4941850;28;20106;-76
2023/10/04 09:57:48;;;;;;;10.10;4.15;;;;;;;;;;4920684;29;20098;-77
2023/10/04 10:00:18;;;;;;;13.23;4.10;;;;;;;;;;4917295;29;20488;-70
2023/10/04 10:02:50;;;;;;;13.18;4.28;;;;;;;;;;4930911;28;20126;-69
2023/10/04 10:05:27;;;;;;;11.70;4.20;;;;;;;;;;4937347;28;20047;-69
2023/10/04 10:08:04;;;;;;;12.73;4.60;;;;;;;;;;4930210;28;20106;-71
2023/10/04 10:10:33;;;;;;;13.20;4.50;;;;;;;;;;4928767;28;20118;-69
2023/10/04 10:13:00;;;;;;;12.27;4.38;;;;;;;;;;4927404;29;20464;-68
2023/10/04 10:15:27;;;;;;;12.68;4.25;;;;;;;;;;4936072;28;20538;-69
2023/10/04 10:17:53;;;;;;;11.73;4.50;;;;;;;;;;4944306;28;20054;-72
2023/10/04 10:20:19;;;;;;;11.05;4.22;;;;;;;;;;4951328;28;20517;-71
2023/10/04 10:23:15;;;;;;;12.98;4.15;;;;;;;;;;4931905;29;20047;-71
2023/10/04 10:26:01;;;;;;;12.50;4.45;;;;;;;;;;4940595;28;20119;-71
2023/10/04 10:28:27;;;;;;;10.43;4.32;;;;;;;;;;4922783;29;20417;-71
2023/10/04 10:31:00;;;;;;;12.70;4.20;;;;;;;;;;4926969;29;20047;-71
2023/10/04 10:33:26;;;;;;;12.80;4.53;;;;;;;;;;4931306;29;20047;-71
2023/10/04 10:35:56;;;;;;;9.82;4.22;;;;;;;;;;4942702;28;20483;-72
2023/10/04 10:38:28;;;;;;;14.02;4.40;;;;;;;;;;4945829;28;20053;-72
2023/10/04 10:40:54;;;;;;;11.05;4.30;;;;;;;;;;4936101;28;20056;-71
2023/10/04 10:43:20;;;;;;;9.77;4.10;;;;;;;;;;4932304;28;20063;-71
2023/10/04 10:45:46;;;;;;;11.52;4.35;;;;;;;;;;4919016;29;20043;-71
2023/10/04 10:48:13;;;;;;;11.88;4.30;;;;;;;;;;4932948;28;20058;-71
2023/10/04 10:50:42;;;;;;;12.18;4.63;;;;;;;;;;4914385;29;20054;-71
2023/10/04 10:53:10;;;;;;;13.73;4.70;;;;;;;;;;4931173;28;20130;-71
2023/10/04 10:55:37;;;;;;;17.40;5.18;;;;;;;;;;4918419;29;20119;-71
2023/10/04 10:58:04;;;;;;;11.25;4.72;;;;;;;;;;4914357;29;20560;-71
2023/10/04 11:00:33;;;;;;;11.40;4.90;;;;;;;;;;4926405;29;20253;-71
2023/10/04 11:03:00;;;;;;;13.40;5.15;;;;;;;;;;4931817;28;20476;-71
2023/10/04 11:05:27;;;;;;;13.95;5.10;;;;;;;;;;4935025;28;20143;-70
2023/10/04 11:07:56;;;;;;;13.18;5.28;;;;;;;;;;4937584;29;20052;-70
2023/10/04 11:10:26;;;;;;;13.82;4.90;;;;;;;;;;4946143;28;20381;-71
2023/10/04 11:13:03;;;;;;;13.35;5.20;;;;;;;;;;4934226;28;20099;-71
2023/10/04 11:15:32;;;;;;;17.15;5.35;;;;;;;;;;4927127;29;20115;-71
2023/10/04 11:17:58;;;;;;;11.63;4.75;;;;;;;;;;4920078;28;20046;-70
2023/10/04 11:20:26;;;;;;;11.77;5.15;;;;;;;;;;4926409;29;20084;-71
2023/10/04 11:22:53;;;;;;;13.32;5.18;;;;;;;;;;4916159;29;20043;-70
2023/10/04 11:25:19;;;;;;;11.98;5.45;;;;;;;;;;4924115;29;20151;-70
2023/10/04 11:27:46;;;;;;;12.73;4.80;;;;;;;;;;4935209;28;20516;-70
2023/10/04 11:30:22;;;;;;;13.57;5.32;;;;;;;;;;4934314;28;20087;-70
2023/10/04 11:32:49;;;;;;;13.45;5.30;;;;;;;;;;4919011;28;20378;-70
2023/10/04 11:35:16;;;;;;;14.77;5.28;;;;;;;;;;4944124;29;20048;-69
2023/10/04 11:37:43;;;;;;;15.07;5.72;;;;;;;;;;4913687;28;20497;-68
2023/10/04 11:40:10;;;;;;;15.13;5.35;;;;;;;;;;4940665;29;20794;-70
2023/10/04 11:42:36;;;;;;;13.20;5.00;;;;;;;;;;4930579;28;20061;-71
2023/10/04 11:45:15;;;;;;;13.50;5.05;;;;;;;;;;4914041;29;20056;-71
2023/10/04 11:47:43;;;;;;;14.07;5.68;;;;;;;;;;4929186;28;20084;-70
2023/10/04 11:50:10;;;;;;;10.70;5.05;;;;;;;;;;4912888;29;20075;-70
2023/10/04 11:52:36;;;;;;;13.00;5.15;;;;;;;;;;4925834;29;20523;-70
2023/10/04 11:55:04;;;;;;;10.82;5.07;;;;;;;;;;4913303;29;20070;-69
2023/10/04 11:57:40;;;;;;;12.27;5.10;;;;;;;;;;4930575;28;20058;-70
2023/10/04 12:00:21;;;;;;;14.88;5.47;;;;;;;;;;4913537;29;20508;-69
2023/10/04 12:02:48;;;;;;;13.43;4.75;;;;;;;;;;4911348;29;20056;-70
2023/10/04 12:05:15;;;;;;;13.05;4.65;;;;;;;;;;4942072;28;20127;-69
2023/10/04 12:07:41;;;;;;;14.20;4.63;;;;;;;;;;4912105;29;20489;-70
2023/10/04 12:10:09;;;;;;;11.35;4.45;;;;;;;;;;4929678;29;20492;-70
2023/10/04 12:12:37;;;;;;;9.88;4.30;;;;;;;;;;4920935;29;20071;-70
2023/10/04 12:15:07;;;;;;;15.85;4.95;;;;;;;;;;4912942;29;20062;-70
2023/10/04 12:17:34;;;;;;;12.63;4.43;;;;;;;;;;4912731;29;20058;-70
2023/10/04 12:20:06;;;;;;;10.77;4.00;;;;;;;;;;4913730;29;20063;-70
2023/10/04 12:22:32;;;;;;;10.43;3.95;;;;;;;;;;4912884;29;20055;-70
2023/10/04 12:25:04;;;;;;;11.90;4.43;;;;;;;;;;4918906;29;20040;-70
2023/10/04 12:27:30;;;;;;;11.10;3.70;;;;;;;;;;4928878;28;20600;-69
2023/10/04 12:29:57;;;;;;;10.63;4.10;;;;;;;;;;4920148;29;20122;-71
2023/10/04 12:32:23;;;;;;;10.73;4.10;;;;;;;;;;4917745;29;20044;-71
2023/10/04 12:34:49;;;;;;;11.23;3.53;;;;;;;;;;4946475;28;20409;-70
2023/10/04 12:37:15;;;;;;;10.85;3.55;;;;;;;;;;4920142;29;20547;-70
2023/10/04 12:39:43;;;;;;;9.20;4.28;;;;;;;;;;4931312;28;20437;-71
2023/10/04 12:42:09;;;;;;;10.93;3.78;;;;;;;;;;4915305;29;20142;-70
2023/10/04 12:44:37;;;;;;;12.85;3.60;;;;;;;;;;4914672;29;20070;-71
2023/10/04 12:47:04;;;;;;;8.68;3.90;;;;;;;;;;4927507;29;20058;-71
2023/10/04 12:49:30;;;;;;;12.68;3.60;;;;;;;;;;4932351;28;20128;-72
2023/10/04 12:51:56;;;;;;;11.95;3.30;;;;;;;;;;4914558;29;20047;-70
2023/10/04 12:54:24;;;;;;;10.93;3.78;;;;;;;;;;4914932;29;20095;-70
2023/10/04 12:56:51;;;;;;;9.45;3.75;;;;;;;;;;4914585;29;20128;-71
2023/10/04 12:59:19;;;;;;;9.43;3.40;;;;;;;;;;4914780;29;20044;-70
2023/10/04 13:01:45;;;;;;;8.52;3.40;;;;;;;;;;4931456;28;20059;-70
2023/10/04 13:04:11;;;;;;;8.38;3.60;;;;;;;;;;4915320;29;20072;-70
2023/10/04 13:06:38;;;;;;;8.50;3.40;;;;;;;;;;4913832;28;20043;-70
2023/10/04 13:09:05;;;;;;;8.68;3.40;;;;;;;;;;4913893;29;20047;-70
2023/10/04 13:11:31;;;;;;;9.65;3.13;;;;;;;;;;4914194;28;20051;-69
2023/10/04 13:13:58;;;;;;;8.70;3.03;;;;;;;;;;4931560;28;20063;-70
2023/10/04 13:16:24;;;;;;;9.65;3.40;;;;;;;;;;4914252;28;20079;-70
2023/10/04 13:18:51;;;;;;;9.48;3.08;;;;;;;;;;4923892;29;20410;-71
2023/10/04 13:21:17;;;;;;;8.85;3.13;;;;;;;;;;4918941;28;20058;-70
2023/10/04 13:23:43;;;;;;;11.52;3.28;;;;;;;;;;4934235;28;20071;-70
2023/10/04 13:26:10;;;;;;;8.60;3.15;;;;;;;;;;4917526;28;20056;-71
2023/10/04 13:28:36;;;;;;;11.73;3.30;;;;;;;;;;4914530;29;20086;-70
2023/10/04 13:31:02;;;;;;;7.20;2.95;;;;;;;;;;4916156;28;20054;-70
2023/10/04 13:33:30;;;;;;;9.68;2.90;;;;;;;;;;4914074;29;20146;-70
2023/10/04 13:35:56;;;;;;;8.30;3.03;;;;;;;;;;4927169;28;20071;-71
2023/10/04 13:38:22;;;;;;;8.45;2.90;;;;;;;;;;4927955;28;20128;-70
2023/10/04 13:40:52;;;;;;;9.40;3.15;;;;;;;;;;4932885;28;20405;-71
2023/10/04 13:43:21;;;;;;;11.05;3.28;;;;;;;;;;4950194;28;20103;-70
2023/10/04 13:45:52;;;;;;;9.85;2.83;;;;;;;;;;4915715;28;20389;-71
2023/10/04 13:48:19;;;;;;;8.15;3.08;;;;;;;;;;4914157;29;20134;-71
2023/10/04 13:50:47;;;;;;;9.27;3.17;;;;;;;;;;4931959;28;20396;-71
2023/10/04 13:53:17;;;;;;;10.48;3.30;;;;;;;;;;4914336;29;20401;-69
2023/10/04 13:55:44;;;;;;;10.13;3.17;;;;;;;;;;4919018;29;20407;-70
2023/10/04 13:58:12;;;;;;;10.00;3.50;;;;;;;;;;4922791;29;20469;-70
2023/10/04 14:00:44;;;;;;;9.27;3.20;;;;;;;;;;4936658;28;20407;-70
2023/10/04 14:03:11;;;;;;;11.85;3.50;;;;;;;;;;4938174;28;20079;-70
2023/10/04 14:05:37;;;;;;;9.65;3.50;;;;;;;;;;4932154;28;20052;-71
2023/10/04 14:08:04;;;;;;;9.57;3.08;;;;;;;;;;4913031;28;20048;-71
2023/10/04 14:10:33;;;;;;;9.75;3.40;;;;;;;;;;4931078;28;20073;-71
2023/10/04 14:12:59;;;;;;;11.05;3.65;;;;;;;;;;4914341;29;20082;-71
2023/10/04 14:15:28;;;;;;;9.25;3.00;;;;;;;;;;4921809;29;20051;-71
2023/10/04 14:17:55;;;;;;;8.85;3.47;;;;;;;;;;4936026;28;20123;-71
2023/10/04 14:20:22;;;;;;;9.55;3.10;;;;;;;;;;4931469;28;20082;-71
2023/10/04 14:22:48;;;;;;;12.68;3.40;;;;;;;;;;4913193;28;20059;-72
2023/10/04 14:25:14;;;;;;;10.90;3.30;;;;;;;;;;4928814;29;20047;-71
2023/10/04 14:27:43;;;;;;;9.50;3.33;;;;;;;;;;4947489;28;20066;-71
2023/10/04 14:30:13;;;;;;;11.25;3.53;;;;;;;;;;4914135;29;20133;-71
2023/10/04 14:32:40;;;;;;;9.60;3.10;;;;;;;;;;4931529;28;20127;-71
2023/10/04 14:35:08;;;;;;;10.05;3.60;;;;;;;;;;4930777;28;20058;-71
2023/10/04 14:37:35;;;;;;;9.60;3.53;;;;;;;;;;4924300;28;20964;-70
2023/10/04 14:40:03;;;;;;;9.45;3.38;;;;;;;;;;4928884;29;20127;-70